sensor_id;sensor_type;location;lat;lon;timestamp;P1;durP1;ratioP1;P2;durP2;ratioP2
9076;SDS011;4574;51.072;17.174;2023-07-09T00:02:22;14.87;;;9.20;;
9076;SDS011;4574;51.072;17.174;2023-07-09T00:04:52;13.80;;;9.10;;
9076;SDS011;4574;51.072;17.174;2023-07-09T00:07:21;16.10;;;9.37;;
9076;SDS011;4574;51.072;17.174;2023-07-09T00:09:53;12.93;;;8.57;;
9076;SDS011;4574;51.072;17.174;2023-07-09T00:12:22;11.30;;;7.77;;
9076;SDS011;4574;51.072;17.174;2023-07-09T00:14:51;14.77;;;8.03;;
9076;SDS011;4574;51.072;17.174;2023-07-09T00:17:21;11.10;;;7.40;;
9076;SDS011;4574;51.072;17.174;2023-07-09T00:19:54;9.67;;;7.00;;
9076;SDS011;4574;51.072;17.174;2023-07-09T00:22:22;11.97;;;7.57;;
9076;SDS011;4574;51.072;17.174;2023-07-09T00:24:54;11.37;;;7.23;;
9076;SDS011;4574;51.072;17.174;2023-07-09T00:27:25;9.73;;;6.60;;
9076;SDS011;4574;51.072;17.174;2023-07-09T00:29:57;8.40;;;6.77;;
9076;SDS011;4574;51.072;17.174;2023-07-09T00:32:27;9.70;;;6.50;;
9076;SDS011;4574;51.072;17.174;2023-07-09T00:34:56;10.17;;;6.30;;
9076;SDS011;4574;51.072;17.174;2023-07-09T00:37:24;11.07;;;6.63;;
9076;SDS011;4574;51.072;17.174;2023-07-09T00:39:53;11.93;;;6.90;;
9076;SDS011;4574;51.072;17.174;2023-07-09T00:42:23;10.27;;;6.23;;
9076;SDS011;4574;51.072;17.174;2023-07-09T00:44:51;10.43;;;5.90;;
9076;SDS011;4574;51.072;17.174;2023-07-09T00:47:22;8.83;;;6.07;;
9076;SDS011;4574;51.072;17.174;2023-07-09T00:50:02;12.93;;;5.80;;
9076;SDS011;4574;51.072;17.174;2023-07-09T00:52:38;11.43;;;5.93;;
9076;SDS011;4574;51.072;17.174;2023-07-09T00:55:12;11.07;;;6.33;;
9076;SDS011;4574;51.072;17.174;2023-07-09T00:57:46;8.93;;;5.73;;
9076;SDS011;4574;51.072;17.174;2023-07-09T01:00:23;7.37;;;5.50;;
9076;SDS011;4574;51.072;17.174;2023-07-09T01:02:56;10.87;;;5.27;;
9076;SDS011;4574;51.072;17.174;2023-07-09T01:05:27;9.20;;;5.53;;
9076;SDS011;4574;51.072;17.174;2023-07-09T01:07:56;9.03;;;5.27;;
9076;SDS011;4574;51.072;17.174;2023-07-09T01:10:25;10.50;;;6.30;;
9076;SDS011;4574;51.072;17.174;2023-07-09T01:12:53;7.70;;;6.00;;
9076;SDS011;4574;51.072;17.174;2023-07-09T01:15:22;8.67;;;6.50;;
9076;SDS011;4574;51.072;17.174;2023-07-09T01:17:51;10.70;;;5.90;;
9076;SDS011;4574;51.072;17.174;2023-07-09T01:20:20;6.23;;;5.53;;
9076;SDS011;4574;51.072;17.174;2023-07-09T01:22:51;10.40;;;6.37;;
9076;SDS011;4574;51.072;17.174;2023-07-09T01:25:24;10.47;;;5.30;;
9076;SDS011;4574;51.072;17.174;2023-07-09T01:27:52;7.80;;;5.60;;
9076;SDS011;4574;51.072;17.174;2023-07-09T01:30:23;7.30;;;5.67;;
9076;SDS011;4574;51.072;17.174;2023-07-09T01:32:55;7.97;;;5.43;;
9076;SDS011;4574;51.072;17.174;2023-07-09T01:35:25;9.27;;;6.60;;
9076;SDS011;4574;51.072;17.174;2023-07-09T01:37:56;7.47;;;5.70;;
9076;SDS011;4574;51.072;17.174;2023-07-09T01:40:26;8.73;;;6.00;;
9076;SDS011;4574;51.072;17.174;2023-07-09T01:43:00;8.00;;;6.03;;
9076;SDS011;4574;51.072;17.174;2023-07-09T01:45:33;8.93;;;6.23;;
9076;SDS011;4574;51.072;17.174;2023-07-09T01:48:03;11.40;;;6.50;;
9076;SDS011;4574;51.072;17.174;2023-07-09T01:50:32;9.73;;;6.10;;
9076;SDS011;4574;51.072;17.174;2023-07-09T01:53:02;8.80;;;6.97;;
9076;SDS011;4574;51.072;17.174;2023-07-09T01:55:30;11.20;;;6.57;;
9076;SDS011;4574;51.072;17.174;2023-07-09T01:58:00;8.03;;;6.07;;
9076;SDS011;4574;51.072;17.174;2023-07-09T02:00:31;8.30;;;6.37;;
9076;SDS011;4574;51.072;17.174;2023-07-09T02:03:01;10.07;;;6.50;;
9076;SDS011;4574;51.072;17.174;2023-07-09T02:05:31;11.13;;;6.70;;
9076;SDS011;4574;51.072;17.174;2023-07-09T02:08:02;7.23;;;6.10;;
9076;SDS011;4574;51.072;17.174;2023-07-09T02:10:31;8.53;;;6.10;;
9076;SDS011;4574;51.072;17.174;2023-07-09T02:13:00;9.73;;;6.33;;
9076;SDS011;4574;51.072;17.174;2023-07-09T02:15:29;7.47;;;6.13;;
9076;SDS011;4574;51.072;17.174;2023-07-09T02:17:58;9.53;;;6.33;;
9076;SDS011;4574;51.072;17.174;2023-07-09T02:20:28;9.40;;;6.40;;
9076;SDS011;4574;51.072;17.174;2023-07-09T02:22:57;7.30;;;6.27;;
9076;SDS011;4574;51.072;17.174;2023-07-09T02:25:27;9.17;;;7.20;;
9076;SDS011;4574;51.072;17.174;2023-07-09T02:27:55;11.37;;;7.43;;
9076;SDS011;4574;51.072;17.174;2023-07-09T02:30:24;10.30;;;8.03;;
9076;SDS011;4574;51.072;17.174;2023-07-09T02:32:53;9.67;;;6.30;;
9076;SDS011;4574;51.072;17.174;2023-07-09T02:35:22;7.17;;;5.87;;
9076;SDS011;4574;51.072;17.174;2023-07-09T02:37:50;9.73;;;6.20;;
9076;SDS011;4574;51.072;17.174;2023-07-09T02:40:19;10.90;;;6.63;;
9076;SDS011;4574;51.072;17.174;2023-07-09T02:42:48;10.47;;;6.50;;
9076;SDS011;4574;51.072;17.174;2023-07-09T02:45:17;8.20;;;5.97;;
9076;SDS011;4574;51.072;17.174;2023-07-09T02:47:45;9.33;;;6.40;;
9076;SDS011;4574;51.072;17.174;2023-07-09T02:50:15;9.43;;;5.60;;
9076;SDS011;4574;51.072;17.174;2023-07-09T02:52:43;11.83;;;6.47;;
9076;SDS011;4574;51.072;17.174;2023-07-09T02:55:12;8.97;;;5.70;;
9076;SDS011;4574;51.072;17.174;2023-07-09T02:57:41;10.13;;;7.37;;
9076;SDS011;4574;51.072;17.174;2023-07-09T03:00:11;8.00;;;6.53;;
9076;SDS011;4574;51.072;17.174;2023-07-09T03:02:41;7.57;;;6.10;;
9076;SDS011;4574;51.072;17.174;2023-07-09T03:05:09;9.43;;;6.23;;
9076;SDS011;4574;51.072;17.174;2023-07-09T03:07:38;9.03;;;6.47;;
9076;SDS011;4574;51.072;17.174;2023-07-09T03:10:07;10.33;;;6.20;;
9076;SDS011;4574;51.072;17.174;2023-07-09T03:12:35;7.63;;;6.10;;
9076;SDS011;4574;51.072;17.174;2023-07-09T03:15:04;9.17;;;6.17;;
9076;SDS011;4574;51.072;17.174;2023-07-09T03:17:35;10.07;;;7.10;;
9076;SDS011;4574;51.072;17.174;2023-07-09T03:20:04;9.67;;;6.80;;
9076;SDS011;4574;51.072;17.174;2023-07-09T03:22:34;9.73;;;6.50;;
9076;SDS011;4574;51.072;17.174;2023-07-09T03:25:03;8.17;;;6.90;;
9076;SDS011;4574;51.072;17.174;2023-07-09T03:27:32;10.67;;;6.43;;
9076;SDS011;4574;51.072;17.174;2023-07-09T03:30:01;9.27;;;6.87;;
9076;SDS011;4574;51.072;17.174;2023-07-09T03:32:30;10.43;;;6.57;;
9076;SDS011;4574;51.072;17.174;2023-07-09T03:35:00;9.73;;;6.80;;
9076;SDS011;4574;51.072;17.174;2023-07-09T03:37:28;8.63;;;6.70;;
9076;SDS011;4574;51.072;17.174;2023-07-09T03:39:57;9.47;;;6.53;;
9076;SDS011;4574;51.072;17.174;2023-07-09T03:42:25;12.60;;;6.87;;
9076;SDS011;4574;51.072;17.174;2023-07-09T03:44:54;10.23;;;6.50;;
9076;SDS011;4574;51.072;17.174;2023-07-09T03:47:22;10.77;;;6.53;;
9076;SDS011;4574;51.072;17.174;2023-07-09T03:49:51;8.47;;;6.10;;
9076;SDS011;4574;51.072;17.174;2023-07-09T03:52:21;9.07;;;6.60;;
9076;SDS011;4574;51.072;17.174;2023-07-09T03:54:50;9.73;;;6.67;;
9076;SDS011;4574;51.072;17.174;2023-07-09T03:57:18;8.27;;;6.37;;
9076;SDS011;4574;51.072;17.174;2023-07-09T03:59:47;9.57;;;6.67;;
9076;SDS011;4574;51.072;17.174;2023-07-09T04:02:15;10.43;;;6.63;;
9076;SDS011;4574;51.072;17.174;2023-07-09T04:04:44;9.07;;;7.10;;
9076;SDS011;4574;51.072;17.174;2023-07-09T04:07:13;10.67;;;7.00;;
9076;SDS011;4574;51.072;17.174;2023-07-09T04:09:46;10.30;;;6.33;;
9076;SDS011;4574;51.072;17.174;2023-07-09T04:12:14;10.37;;;6.30;;
9076;SDS011;4574;51.072;17.174;2023-07-09T04:14:43;7.93;;;6.33;;
9076;SDS011;4574;51.072;17.174;2023-07-09T04:17:11;9.40;;;6.50;;
9076;SDS011;4574;51.072;17.174;2023-07-09T04:19:40;10.53;;;6.80;;
9076;SDS011;4574;51.072;17.174;2023-07-09T04:22:09;9.83;;;6.57;;
9076;SDS011;4574;51.072;17.174;2023-07-09T04:24:38;9.83;;;6.13;;
9076;SDS011;4574;51.072;17.174;2023-07-09T04:27:08;9.50;;;6.80;;
9076;SDS011;4574;51.072;17.174;2023-07-09T04:29:37;9.67;;;6.97;;
9076;SDS011;4574;51.072;17.174;2023-07-09T04:32:06;8.67;;;6.73;;
9076;SDS011;4574;51.072;17.174;2023-07-09T04:34:39;8.73;;;6.53;;
9076;SDS011;4574;51.072;17.174;2023-07-09T04:37:08;8.47;;;5.90;;
9076;SDS011;4574;51.072;17.174;2023-07-09T04:39:38;10.20;;;6.73;;
9076;SDS011;4574;51.072;17.174;2023-07-09T04:42:09;9.80;;;6.30;;
9076;SDS011;4574;51.072;17.174;2023-07-09T04:44:39;9.03;;;6.73;;
9076;SDS011;4574;51.072;17.174;2023-07-09T04:47:08;9.00;;;6.60;;
9076;SDS011;4574;51.072;17.174;2023-07-09T04:49:38;10.90;;;6.43;;
9076;SDS011;4574;51.072;17.174;2023-07-09T04:52:08;9.03;;;5.67;;
9076;SDS011;4574;51.072;17.174;2023-07-09T04:54:39;8.17;;;6.27;;
9076;SDS011;4574;51.072;17.174;2023-07-09T04:57:11;9.23;;;6.53;;
9076;SDS011;4574;51.072;17.174;2023-07-09T04:59:40;11.30;;;6.87;;
9076;SDS011;4574;51.072;17.174;2023-07-09T05:02:09;10.50;;;6.40;;
9076;SDS011;4574;51.072;17.174;2023-07-09T05:04:37;8.80;;;6.33;;
9076;SDS011;4574;51.072;17.174;2023-07-09T05:07:06;8.70;;;6.97;;
9076;SDS011;4574;51.072;17.174;2023-07-09T05:09:35;6.93;;;6.10;;
9076;SDS011;4574;51.072;17.174;2023-07-09T05:12:04;8.50;;;6.47;;
9076;SDS011;4574;51.072;17.174;2023-07-09T05:14:35;8.53;;;6.50;;
9076;SDS011;4574;51.072;17.174;2023-07-09T05:17:05;8.93;;;6.93;;
9076;SDS011;4574;51.072;17.174;2023-07-09T05:19:34;11.40;;;6.27;;
9076;SDS011;4574;51.072;17.174;2023-07-09T05:22:03;8.43;;;6.10;;
9076;SDS011;4574;51.072;17.174;2023-07-09T05:24:32;9.60;;;6.53;;
9076;SDS011;4574;51.072;17.174;2023-07-09T05:27:00;7.53;;;5.97;;
9076;SDS011;4574;51.072;17.174;2023-07-09T05:29:29;8.97;;;6.27;;
9076;SDS011;4574;51.072;17.174;2023-07-09T05:31:59;8.70;;;6.93;;
9076;SDS011;4574;51.072;17.174;2023-07-09T05:34:28;10.80;;;6.60;;
9076;SDS011;4574;51.072;17.174;2023-07-09T05:36:57;9.13;;;7.07;;
9076;SDS011;4574;51.072;17.174;2023-07-09T05:39:27;8.50;;;6.83;;
9076;SDS011;4574;51.072;17.174;2023-07-09T05:41:55;8.77;;;6.30;;
9076;SDS011;4574;51.072;17.174;2023-07-09T05:44:24;12.37;;;7.17;;
9076;SDS011;4574;51.072;17.174;2023-07-09T05:46:52;8.13;;;6.10;;
9076;SDS011;4574;51.072;17.174;2023-07-09T05:49:22;8.20;;;6.73;;
9076;SDS011;4574;51.072;17.174;2023-07-09T05:51:51;9.90;;;6.40;;
9076;SDS011;4574;51.072;17.174;2023-07-09T05:54:20;9.23;;;6.40;;
9076;SDS011;4574;51.072;17.174;2023-07-09T05:56:49;11.13;;;7.10;;
9076;SDS011;4574;51.072;17.174;2023-07-09T05:59:17;10.50;;;7.50;;
9076;SDS011;4574;51.072;17.174;2023-07-09T06:01:46;8.80;;;7.20;;
9076;SDS011;4574;51.072;17.174;2023-07-09T06:04:14;11.43;;;7.53;;
9076;SDS011;4574;51.072;17.174;2023-07-09T06:06:44;12.27;;;7.03;;
9076;SDS011;4574;51.072;17.174;2023-07-09T06:09:13;10.93;;;6.80;;
9076;SDS011;4574;51.072;17.174;2023-07-09T06:11:43;8.67;;;6.23;;
9076;SDS011;4574;51.072;17.174;2023-07-09T06:14:11;9.37;;;7.30;;
9076;SDS011;4574;51.072;17.174;2023-07-09T06:16:40;8.00;;;6.60;;
9076;SDS011;4574;51.072;17.174;2023-07-09T06:19:09;10.23;;;6.20;;
9076;SDS011;4574;51.072;17.174;2023-07-09T06:21:38;9.67;;;6.17;;
9076;SDS011;4574;51.072;17.174;2023-07-09T06:24:08;10.23;;;7.00;;
9076;SDS011;4574;51.072;17.174;2023-07-09T06:26:37;10.27;;;6.50;;
9076;SDS011;4574;51.072;17.174;2023-07-09T06:29:06;17.53;;;6.70;;
9076;SDS011;4574;51.072;17.174;2023-07-09T06:31:35;7.97;;;6.07;;
9076;SDS011;4574;51.072;17.174;2023-07-09T06:34:04;9.27;;;5.57;;
9076;SDS011;4574;51.072;17.174;2023-07-09T06:36:33;9.13;;;5.73;;
9076;SDS011;4574;51.072;17.174;2023-07-09T06:39:03;11.17;;;6.40;;
9076;SDS011;4574;51.072;17.174;2023-07-09T06:41:34;9.67;;;5.80;;
9076;SDS011;4574;51.072;17.174;2023-07-09T06:44:05;6.73;;;5.57;;
9076;SDS011;4574;51.072;17.174;2023-07-09T06:46:35;6.03;;;5.40;;
9076;SDS011;4574;51.072;17.174;2023-07-09T06:49:07;6.60;;;5.67;;
9076;SDS011;4574;51.072;17.174;2023-07-09T06:51:35;6.27;;;5.37;;
9076;SDS011;4574;51.072;17.174;2023-07-09T06:54:04;8.20;;;5.63;;
9076;SDS011;4574;51.072;17.174;2023-07-09T06:56:36;7.40;;;5.70;;
9076;SDS011;4574;51.072;17.174;2023-07-09T06:59:05;7.77;;;6.03;;
9076;SDS011;4574;51.072;17.174;2023-07-09T07:01:34;6.73;;;5.47;;
9076;SDS011;4574;51.072;17.174;2023-07-09T07:04:02;7.67;;;5.13;;
9076;SDS011;4574;51.072;17.174;2023-07-09T07:06:31;8.97;;;5.93;;
9076;SDS011;4574;51.072;17.174;2023-07-09T07:09:00;8.53;;;5.63;;
9076;SDS011;4574;51.072;17.174;2023-07-09T07:11:28;9.23;;;5.80;;
9076;SDS011;4574;51.072;17.174;2023-07-09T07:13:58;7.43;;;5.53;;
9076;SDS011;4574;51.072;17.174;2023-07-09T07:16:27;7.27;;;5.27;;
9076;SDS011;4574;51.072;17.174;2023-07-09T07:18:56;8.33;;;6.10;;
9076;SDS011;4574;51.072;17.174;2023-07-09T07:21:24;9.40;;;5.40;;
9076;SDS011;4574;51.072;17.174;2023-07-09T07:23:53;6.17;;;5.33;;
9076;SDS011;4574;51.072;17.174;2023-07-09T07:26:21;7.83;;;5.57;;
9076;SDS011;4574;51.072;17.174;2023-07-09T07:28:50;6.47;;;5.37;;
9076;SDS011;4574;51.072;17.174;2023-07-09T07:31:20;8.07;;;5.57;;
9076;SDS011;4574;51.072;17.174;2023-07-09T07:33:49;7.20;;;5.27;;
9076;SDS011;4574;51.072;17.174;2023-07-09T07:36:18;6.80;;;5.00;;
9076;SDS011;4574;51.072;17.174;2023-07-09T07:38:56;6.67;;;4.87;;
9076;SDS011;4574;51.072;17.174;2023-07-09T07:41:25;5.90;;;4.90;;
9076;SDS011;4574;51.072;17.174;2023-07-09T07:43:53;6.30;;;5.17;;
9076;SDS011;4574;51.072;17.174;2023-07-09T07:46:23;10.17;;;4.93;;
9076;SDS011;4574;51.072;17.174;2023-07-09T07:48:52;5.17;;;4.23;;
9076;SDS011;4574;51.072;17.174;2023-07-09T07:51:20;5.93;;;4.70;;
9076;SDS011;4574;51.072;17.174;2023-07-09T07:53:49;6.90;;;4.60;;
9076;SDS011;4574;51.072;17.174;2023-07-09T07:56:17;9.93;;;5.50;;
9076;SDS011;4574;51.072;17.174;2023-07-09T07:58:52;6.17;;;4.67;;
9076;SDS011;4574;51.072;17.174;2023-07-09T08:01:26;6.87;;;4.60;;
9076;SDS011;4574;51.072;17.174;2023-07-09T08:03:55;6.73;;;4.70;;
9076;SDS011;4574;51.072;17.174;2023-07-09T08:06:24;9.10;;;4.80;;
9076;SDS011;4574;51.072;17.174;2023-07-09T08:08:52;7.70;;;4.90;;
9076;SDS011;4574;51.072;17.174;2023-07-09T08:11:21;6.90;;;4.60;;
9076;SDS011;4574;51.072;17.174;2023-07-09T08:13:49;4.10;;;3.67;;
9076;SDS011;4574;51.072;17.174;2023-07-09T08:16:18;4.97;;;4.03;;
9076;SDS011;4574;51.072;17.174;2023-07-09T08:18:48;4.43;;;4.03;;
9076;SDS011;4574;51.072;17.174;2023-07-09T08:21:18;4.80;;;3.87;;
9076;SDS011;4574;51.072;17.174;2023-07-09T08:23:47;5.43;;;4.50;;
9076;SDS011;4574;51.072;17.174;2023-07-09T08:26:15;8.70;;;4.60;;
9076;SDS011;4574;51.072;17.174;2023-07-09T08:28:44;9.27;;;4.77;;
9076;SDS011;4574;51.072;17.174;2023-07-09T08:31:12;9.37;;;5.17;;
9076;SDS011;4574;51.072;17.174;2023-07-09T08:33:41;8.43;;;4.83;;
9076;SDS011;4574;51.072;17.174;2023-07-09T08:36:11;5.00;;;4.50;;
9076;SDS011;4574;51.072;17.174;2023-07-09T08:38:39;6.47;;;4.37;;
9076;SDS011;4574;51.072;17.174;2023-07-09T08:41:09;7.07;;;3.83;;
9076;SDS011;4574;51.072;17.174;2023-07-09T08:43:56;7.10;;;4.00;;
9076;SDS011;4574;51.072;17.174;2023-07-09T08:46:48;4.77;;;3.83;;
9076;SDS011;4574;51.072;17.174;2023-07-09T08:49:26;10.33;;;4.17;;
9076;SDS011;4574;51.072;17.174;2023-07-09T08:52:05;3.80;;;3.47;;
9076;SDS011;4574;51.072;17.174;2023-07-09T08:54:43;5.13;;;3.57;;
9076;SDS011;4574;51.072;17.174;2023-07-09T08:57:21;5.37;;;3.70;;
9076;SDS011;4574;51.072;17.174;2023-07-09T08:59:53;4.27;;;3.87;;
9076;SDS011;4574;51.072;17.174;2023-07-09T09:02:29;4.27;;;3.40;;
9076;SDS011;4574;51.072;17.174;2023-07-09T09:05:02;3.93;;;3.53;;
9076;SDS011;4574;51.072;17.174;2023-07-09T09:07:38;8.33;;;4.00;;
9076;SDS011;4574;51.072;17.174;2023-07-09T09:10:10;5.60;;;4.23;;
9076;SDS011;4574;51.072;17.174;2023-07-09T09:12:45;4.80;;;3.73;;
9076;SDS011;4574;51.072;17.174;2023-07-09T09:15:27;3.90;;;3.50;;
9076;SDS011;4574;51.072;17.174;2023-07-09T09:17:57;4.60;;;3.43;;
9076;SDS011;4574;51.072;17.174;2023-07-09T09:20:38;5.47;;;4.00;;
9076;SDS011;4574;51.072;17.174;2023-07-09T09:23:12;4.20;;;3.50;;
9076;SDS011;4574;51.072;17.174;2023-07-09T09:25:43;3.87;;;3.37;;
9076;SDS011;4574;51.072;17.174;2023-07-09T09:28:37;5.87;;;3.33;;
9076;SDS011;4574;51.072;17.174;2023-07-09T09:31:07;3.70;;;3.23;;
9076;SDS011;4574;51.072;17.174;2023-07-09T09:33:40;4.10;;;2.90;;
9076;SDS011;4574;51.072;17.174;2023-07-09T09:36:14;4.90;;;3.40;;
9076;SDS011;4574;51.072;17.174;2023-07-09T09:38:46;3.53;;;3.23;;
9076;SDS011;4574;51.072;17.174;2023-07-09T09:41:17;4.67;;;2.73;;
9076;SDS011;4574;51.072;17.174;2023-07-09T09:43:48;3.60;;;2.87;;
9076;SDS011;4574;51.072;17.174;2023-07-09T09:46:20;4.63;;;2.90;;
9076;SDS011;4574;51.072;17.174;2023-07-09T09:48:50;4.80;;;2.90;;
9076;SDS011;4574;51.072;17.174;2023-07-09T09:51:22;6.00;;;2.90;;
9076;SDS011;4574;51.072;17.174;2023-07-09T09:53:55;3.50;;;2.80;;
9076;SDS011;4574;51.072;17.174;2023-07-09T09:56:27;5.27;;;2.80;;
9076;SDS011;4574;51.072;17.174;2023-07-09T09:58:57;7.43;;;2.87;;
9076;SDS011;4574;51.072;17.174;2023-07-09T10:01:27;5.93;;;2.83;;
9076;SDS011;4574;51.072;17.174;2023-07-09T10:03:58;6.73;;;2.60;;
9076;SDS011;4574;51.072;17.174;2023-07-09T10:06:33;3.40;;;2.63;;
9076;SDS011;4574;51.072;17.174;2023-07-09T10:09:08;5.03;;;2.50;;
9076;SDS011;4574;51.072;17.174;2023-07-09T10:11:48;4.33;;;2.60;;
9076;SDS011;4574;51.072;17.174;2023-07-09T10:14:24;6.90;;;2.80;;
9076;SDS011;4574;51.072;17.174;2023-07-09T10:16:59;6.13;;;2.40;;
9076;SDS011;4574;51.072;17.174;2023-07-09T10:19:35;3.03;;;2.57;;
9076;SDS011;4574;51.072;17.174;2023-07-09T10:22:12;2.87;;;2.57;;
9076;SDS011;4574;51.072;17.174;2023-07-09T10:24:54;3.27;;;2.83;;
9076;SDS011;4574;51.072;17.174;2023-07-09T10:27:31;2.50;;;2.30;;
9076;SDS011;4574;51.072;17.174;2023-07-09T10:30:13;5.63;;;2.97;;
9076;SDS011;4574;51.072;17.174;2023-07-09T10:32:55;5.47;;;2.50;;
9076;SDS011;4574;51.072;17.174;2023-07-09T10:35:36;3.27;;;2.53;;
9076;SDS011;4574;51.072;17.174;2023-07-09T10:38:19;2.87;;;2.57;;
9076;SDS011;4574;51.072;17.174;2023-07-09T10:41:09;3.83;;;2.20;;
9076;SDS011;4574;51.072;17.174;2023-07-09T10:43:54;5.00;;;2.40;;
9076;SDS011;4574;51.072;17.174;2023-07-09T10:46:29;2.50;;;2.10;;
9076;SDS011;4574;51.072;17.174;2023-07-09T10:49:02;3.53;;;2.53;;
9076;SDS011;4574;51.072;17.174;2023-07-09T10:51:37;2.57;;;2.20;;
9076;SDS011;4574;51.072;17.174;2023-07-09T10:54:09;2.50;;;2.30;;
9076;SDS011;4574;51.072;17.174;2023-07-09T10:56:47;2.63;;;2.43;;
9076;SDS011;4574;51.072;17.174;2023-07-09T10:59:21;4.50;;;2.33;;
9076;SDS011;4574;51.072;17.174;2023-07-09T11:02:08;3.97;;;2.40;;
9076;SDS011;4574;51.072;17.174;2023-07-09T11:04:47;3.60;;;2.30;;
9076;SDS011;4574;51.072;17.174;2023-07-09T11:07:22;2.40;;;2.20;;
9076;SDS011;4574;51.072;17.174;2023-07-09T11:09:56;3.10;;;2.40;;
9076;SDS011;4574;51.072;17.174;2023-07-09T11:12:29;3.10;;;2.70;;
9076;SDS011;4574;51.072;17.174;2023-07-09T11:15:01;3.77;;;2.47;;
9076;SDS011;4574;51.072;17.174;2023-07-09T11:17:35;3.13;;;2.27;;
9076;SDS011;4574;51.072;17.174;2023-07-09T11:20:16;2.80;;;2.60;;
9076;SDS011;4574;51.072;17.174;2023-07-09T11:22:51;2.83;;;2.47;;
9076;SDS011;4574;51.072;17.174;2023-07-09T11:25:28;2.67;;;2.47;;
9076;SDS011;4574;51.072;17.174;2023-07-09T11:28:09;3.57;;;2.87;;
9076;SDS011;4574;51.072;17.174;2023-07-09T11:30:48;3.63;;;2.63;;
9076;SDS011;4574;51.072;17.174;2023-07-09T11:33:18;2.73;;;2.50;;
9076;SDS011;4574;51.072;17.174;2023-07-09T11:35:51;2.50;;;2.30;;
9076;SDS011;4574;51.072;17.174;2023-07-09T11:38:23;3.03;;;2.73;;
9076;SDS011;4574;51.072;17.174;2023-07-09T11:40:53;2.93;;;2.70;;
9076;SDS011;4574;51.072;17.174;2023-07-09T11:43:28;2.57;;;2.37;;
9076;SDS011;4574;51.072;17.174;2023-07-09T11:46:04;4.77;;;2.60;;
9076;SDS011;4574;51.072;17.174;2023-07-09T11:48:39;2.80;;;2.57;;
9076;SDS011;4574;51.072;17.174;2023-07-09T11:51:12;3.07;;;2.50;;
9076;SDS011;4574;51.072;17.174;2023-07-09T11:53:46;2.87;;;2.53;;
9076;SDS011;4574;51.072;17.174;2023-07-09T11:56:18;3.87;;;2.93;;
9076;SDS011;4574;51.072;17.174;2023-07-09T11:58:49;3.10;;;2.67;;
9076;SDS011;4574;51.072;17.174;2023-07-09T12:01:18;3.43;;;2.80;;
9076;SDS011;4574;51.072;17.174;2023-07-09T12:03:49;3.30;;;2.70;;
9076;SDS011;4574;51.072;17.174;2023-07-09T12:06:21;4.33;;;2.80;;
9076;SDS011;4574;51.072;17.174;2023-07-09T12:08:52;3.03;;;2.73;;
9076;SDS011;4574;51.072;17.174;2023-07-09T12:11:21;2.70;;;2.50;;
9076;SDS011;4574;51.072;17.174;2023-07-09T12:13:53;3.57;;;2.57;;
9076;SDS011;4574;51.072;17.174;2023-07-09T12:16:23;3.40;;;2.60;;
9076;SDS011;4574;51.072;17.174;2023-07-09T12:18:53;6.10;;;2.50;;
9076;SDS011;4574;51.072;17.174;2023-07-09T12:21:22;2.93;;;2.73;;
9076;SDS011;4574;51.072;17.174;2023-07-09T12:23:52;2.80;;;2.50;;
9076;SDS011;4574;51.072;17.174;2023-07-09T12:26:22;9.53;;;2.83;;
9076;SDS011;4574;51.072;17.174;2023-07-09T12:28:52;2.70;;;2.40;;
9076;SDS011;4574;51.072;17.174;2023-07-09T12:31:24;3.00;;;2.70;;
9076;SDS011;4574;51.072;17.174;2023-07-09T12:33:55;2.63;;;2.43;;
9076;SDS011;4574;51.072;17.174;2023-07-09T12:36:26;3.10;;;2.90;;
9076;SDS011;4574;51.072;17.174;2023-07-09T12:38:56;6.80;;;2.70;;
9076;SDS011;4574;51.072;17.174;2023-07-09T12:41:32;4.10;;;3.00;;
9076;SDS011;4574;51.072;17.174;2023-07-09T12:44:08;3.17;;;2.43;;
9076;SDS011;4574;51.072;17.174;2023-07-09T12:46:44;6.50;;;2.80;;
9076;SDS011;4574;51.072;17.174;2023-07-09T12:49:23;2.70;;;2.50;;
9076;SDS011;4574;51.072;17.174;2023-07-09T12:51:53;4.93;;;2.67;;
9076;SDS011;4574;51.072;17.174;2023-07-09T12:54:22;3.90;;;2.50;;
9076;SDS011;4574;51.072;17.174;2023-07-09T12:56:51;2.67;;;2.47;;
9076;SDS011;4574;51.072;17.174;2023-07-09T12:59:23;4.23;;;2.77;;
9076;SDS011;4574;51.072;17.174;2023-07-09T13:01:55;5.60;;;2.50;;
9076;SDS011;4574;51.072;17.174;2023-07-09T13:04:29;3.83;;;2.70;;
9076;SDS011;4574;51.072;17.174;2023-07-09T13:06:59;2.80;;;2.60;;
9076;SDS011;4574;51.072;17.174;2023-07-09T13:09:28;4.83;;;2.73;;
9076;SDS011;4574;51.072;17.174;2023-07-09T13:11:57;3.70;;;2.80;;
9076;SDS011;4574;51.072;17.174;2023-07-09T13:14:30;2.50;;;2.30;;
9076;SDS011;4574;51.072;17.174;2023-07-09T13:17:02;4.67;;;2.67;;
9076;SDS011;4574;51.072;17.174;2023-07-09T13:19:32;3.70;;;2.60;;
9076;SDS011;4574;51.072;17.174;2023-07-09T13:22:01;2.83;;;2.53;;
9076;SDS011;4574;51.072;17.174;2023-07-09T13:24:32;3.70;;;3.03;;
9076;SDS011;4574;51.072;17.174;2023-07-09T13:27:02;3.17;;;2.70;;
9076;SDS011;4574;51.072;17.174;2023-07-09T13:29:34;5.00;;;2.80;;
9076;SDS011;4574;51.072;17.174;2023-07-09T13:32:04;3.73;;;2.80;;
9076;SDS011;4574;51.072;17.174;2023-07-09T13:34:36;3.50;;;2.67;;
9076;SDS011;4574;51.072;17.174;2023-07-09T13:37:08;3.70;;;2.50;;
9076;SDS011;4574;51.072;17.174;2023-07-09T13:39:39;2.90;;;2.70;;
9076;SDS011;4574;51.072;17.174;2023-07-09T13:42:09;2.80;;;2.60;;
9076;SDS011;4574;51.072;17.174;2023-07-09T13:44:41;2.67;;;2.47;;
9076;SDS011;4574;51.072;17.174;2023-07-09T13:47:12;3.57;;;2.40;;
9076;SDS011;4574;51.072;17.174;2023-07-09T13:49:43;3.07;;;2.57;;
9076;SDS011;4574;51.072;17.174;2023-07-09T13:52:14;2.80;;;2.50;;
9076;SDS011;4574;51.072;17.174;2023-07-09T13:54:44;6.63;;;2.57;;
9076;SDS011;4574;51.072;17.174;2023-07-09T13:57:15;2.57;;;2.37;;
9076;SDS011;4574;51.072;17.174;2023-07-09T13:59:47;3.57;;;2.50;;
9076;SDS011;4574;51.072;17.174;2023-07-09T14:02:18;2.43;;;2.23;;
9076;SDS011;4574;51.072;17.174;2023-07-09T14:04:51;3.13;;;2.77;;
9076;SDS011;4574;51.072;17.174;2023-07-09T14:07:23;3.73;;;2.43;;
9076;SDS011;4574;51.072;17.174;2023-07-09T14:09:54;2.60;;;2.40;;
9076;SDS011;4574;51.072;17.174;2023-07-09T14:12:23;8.07;;;2.80;;
9076;SDS011;4574;51.072;17.174;2023-07-09T14:14:53;5.13;;;2.63;;
9076;SDS011;4574;51.072;17.174;2023-07-09T14:17:25;3.03;;;2.60;;
9076;SDS011;4574;51.072;17.174;2023-07-09T14:19:54;3.77;;;2.50;;
9076;SDS011;4574;51.072;17.174;2023-07-09T14:22:26;3.97;;;2.43;;
9076;SDS011;4574;51.072;17.174;2023-07-09T14:24:58;3.40;;;2.63;;
9076;SDS011;4574;51.072;17.174;2023-07-09T14:27:27;5.90;;;2.33;;
9076;SDS011;4574;51.072;17.174;2023-07-09T14:29:57;3.27;;;2.60;;
9076;SDS011;4574;51.072;17.174;2023-07-09T14:32:33;2.37;;;2.10;;
9076;SDS011;4574;51.072;17.174;2023-07-09T14:35:05;3.53;;;2.57;;
9076;SDS011;4574;51.072;17.174;2023-07-09T14:37:39;5.30;;;2.40;;
9076;SDS011;4574;51.072;17.174;2023-07-09T14:40:08;7.43;;;2.47;;
9076;SDS011;4574;51.072;17.174;2023-07-09T14:42:38;3.40;;;2.47;;
9076;SDS011;4574;51.072;17.174;2023-07-09T14:45:15;3.93;;;2.47;;
9076;SDS011;4574;51.072;17.174;2023-07-09T14:47:45;4.83;;;2.63;;
9076;SDS011;4574;51.072;17.174;2023-07-09T14:50:14;2.77;;;2.57;;
9076;SDS011;4574;51.072;17.174;2023-07-09T14:52:43;3.23;;;2.30;;
9076;SDS011;4574;51.072;17.174;2023-07-09T14:55:14;2.80;;;2.30;;
9076;SDS011;4574;51.072;17.174;2023-07-09T14:57:43;3.47;;;2.10;;
9076;SDS011;4574;51.072;17.174;2023-07-09T15:00:14;2.37;;;2.20;;
9076;SDS011;4574;51.072;17.174;2023-07-09T15:02:45;2.70;;;2.50;;
9076;SDS011;4574;51.072;17.174;2023-07-09T15:05:15;5.00;;;2.10;;
9076;SDS011;4574;51.072;17.174;2023-07-09T15:07:45;2.37;;;2.17;;
9076;SDS011;4574;51.072;17.174;2023-07-09T15:10:15;3.43;;;2.23;;
9076;SDS011;4574;51.072;17.174;2023-07-09T15:12:44;4.30;;;2.40;;
9076;SDS011;4574;51.072;17.174;2023-07-09T15:15:20;5.83;;;2.57;;
9076;SDS011;4574;51.072;17.174;2023-07-09T15:17:50;2.80;;;2.30;;
9076;SDS011;4574;51.072;17.174;2023-07-09T15:20:20;2.43;;;2.23;;
9076;SDS011;4574;51.072;17.174;2023-07-09T15:22:50;2.37;;;2.17;;